Time;durP1;ratioP1;P1;durP2;ratioP2;P2;SDS_P1;SDS_P2;PMS_P1;PMS_P2;Temp;Humidity;BMP_temperature;BMP_pressure;BME280_temperature;BME280_humidity;BME280_pressure;Samples;Min_cycle;Max_cycle;Signal;HPM_P1;HPM_P2
2023/02/13 00:00:30;;;;;;;17.33;12.53;;;8.30;99.90;;;;;;5075372;28;20431;-65
2023/02/13 00:02:55;;;;;;;18.37;12.00;;;8.30;99.90;;;;;;5076847;28;20440;-65
2023/02/13 00:05:21;;;;;;;16.30;11.80;;;8.30;99.90;;;;;;5077168;28;20205;-65
2023/02/13 00:07:46;;;;;;;15.63;12.53;;;8.30;99.90;;;;;;5074841;28;20692;-65
2023/02/13 00:10:12;;;;;;;18.70;12.70;;;8.30;99.90;;;;;;5076304;28;20640;-65
2023/02/13 00:12:37;;;;;;;22.93;12.97;;;8.20;99.90;;;;;;5076913;28;20179;-65
2023/02/13 00:15:04;;;;;;;17.70;13.47;;;8.20;99.90;;;;;;5057569;28;20211;-65
2023/02/13 00:17:31;;;;;;;17.93;13.90;;;8.20;99.90;;;;;;5069585;28;20281;-65
2023/02/13 00:19:56;;;;;;;21.63;14.07;;;8.20;99.90;;;;;;5077416;28;20504;-65
2023/02/13 00:22:23;;;;;;;17.03;12.30;;;8.10;99.90;;;;;;5072369;28;20436;-65
2023/02/13 00:24:48;;;;;;;19.27;13.33;;;8.10;99.90;;;;;;5060515;28;20187;-65
2023/02/13 00:27:14;;;;;;;18.13;12.97;;;8.10;99.90;;;;;;5070228;28;21153;-65
2023/02/13 00:29:40;;;;;;;20.00;14.33;;;8.00;99.90;;;;;;5073895;28;20187;-65
2023/02/13 00:32:05;;;;;;;18.63;12.47;;;8.00;99.90;;;;;;5074658;28;20566;-65
2023/02/13 00:34:31;;;;;;;18.30;13.57;;;8.00;99.90;;;;;;5074873;28;20182;-65
2023/02/13 00:36:57;;;;;;;20.33;13.30;;;8.00;99.90;;;;;;5074666;28;20457;-65
2023/02/13 00:39:22;;;;;;;21.20;14.13;;;8.00;99.90;;;;;;5055583;28;20182;-65
2023/02/13 00:41:48;;;;;;;19.43;12.67;;;7.90;99.90;;;;;;5075352;28;20213;-65
2023/02/13 00:44:13;;;;;;;18.47;12.87;;;8.00;99.90;;;;;;5074430;28;20186;-64
2023/02/13 00:46:39;;;;;;;18.80;14.23;;;8.00;99.90;;;;;;5074324;28;20206;-64
2023/02/13 00:49:05;;;;;;;23.00;15.07;;;7.90;99.90;;;;;;5077230;28;20201;-65
2023/02/13 00:51:30;;;;;;;19.50;14.00;;;7.90;99.90;;;;;;5059036;28;20598;-65
2023/02/13 00:53:56;;;;;;;21.53;13.60;;;7.90;99.90;;;;;;5072445;28;20794;-65
2023/02/13 00:56:21;;;;;;;20.00;12.83;;;7.90;99.90;;;;;;5075478;28;20221;-65
2023/02/13 00:58:47;;;;;;;20.97;14.57;;;7.90;99.90;;;;;;5077033;28;20182;-65
2023/02/13 01:01:13;;;;;;;24.60;15.10;;;7.80;99.90;;;;;;5074458;28;20186;-64
2023/02/13 01:03:39;;;;;;;20.83;14.00;;;7.80;99.90;;;;;;5070374;28;20464;-65
2023/02/13 01:06:05;;;;;;;21.83;15.40;;;7.80;99.90;;;;;;5071055;28;20268;-65
2023/02/13 01:08:31;;;;;;;19.40;13.47;;;7.80;99.90;;;;;;5071938;28;20534;-65
2023/02/13 01:10:57;;;;;;;21.13;15.60;;;7.80;99.90;;;;;;5071590;28;20943;-67
2023/02/13 01:13:22;;;;;;;23.53;15.30;;;7.80;99.90;;;;;;5073826;28;20406;-64
2023/02/13 01:15:50;;;;;;;22.00;14.50;;;7.70;99.90;;;;;;5073601;28;20199;-64
2023/02/13 01:18:18;;;;;;;22.13;14.63;;;7.70;99.90;;;;;;5073125;28;20608;-64
2023/02/13 01:20:43;;;;;;;24.23;15.07;;;7.70;99.90;;;;;;5074787;28;20428;-65
2023/02/13 01:23:10;;;;;;;25.53;16.07;;;7.70;99.90;;;;;;5072489;28;20871;-64
2023/02/13 01:25:41;;;;;;;24.93;14.80;;;7.70;99.90;;;;;;5059051;28;20640;-65
2023/02/13 01:28:07;;;;;;;19.60;13.47;;;7.70;99.90;;;;;;5071817;28;20428;-65
2023/02/13 01:30:33;;;;;;;23.00;16.77;;;7.60;99.90;;;;;;5070453;28;20440;-64
2023/02/13 01:32:59;;;;;;;23.53;16.60;;;7.60;99.90;;;;;;5071480;28;20827;-65
2023/02/13 01:35:24;;;;;;;19.93;14.80;;;7.60;99.90;;;;;;5074838;28;20495;-65
2023/02/13 01:37:50;;;;;;;22.63;14.47;;;7.60;99.90;;;;;;5071560;28;20195;-65
2023/02/13 01:40:16;;;;;;;23.73;14.67;;;7.60;99.90;;;;;;5052703;28;20667;-65
2023/02/13 01:42:42;;;;;;;21.70;14.40;;;7.50;99.90;;;;;;5074658;28;20440;-65
2023/02/13 01:45:28;;;;;;;22.60;16.17;;;7.50;99.90;;;;;;5072993;28;20191;-65
2023/02/13 01:47:59;;;;;;;25.10;16.27;;;7.40;99.90;;;;;;5073725;28;20972;-65
2023/02/13 01:50:36;;;;;;;20.37;15.00;;;7.50;99.90;;;;;;5071106;28;20485;-65
2023/02/13 01:53:08;;;;;;;21.30;15.07;;;7.40;99.90;;;;;;5071045;28;20736;-65
2023/02/13 01:55:41;;;;;;;22.70;14.30;;;7.40;99.90;;;;;;5074161;28;20474;-65
2023/02/13 01:58:10;;;;;;;23.10;15.30;;;7.40;99.90;;;;;;5077053;28;20468;-65
2023/02/13 02:00:38;;;;;;;20.67;16.17;;;7.40;99.90;;;;;;5061025;28;20427;-65
2023/02/13 02:03:14;;;;;;;23.33;15.57;;;7.40;99.90;;;;;;5077486;28;20420;-65
2023/02/13 02:05:40;;;;;;;24.03;15.63;;;7.40;99.90;;;;;;5075369;28;20460;-65
2023/02/13 02:08:10;;;;;;;23.43;15.80;;;7.30;99.90;;;;;;5076327;28;20450;-65
2023/02/13 02:10:36;;;;;;;25.63;14.97;;;7.30;99.90;;;;;;5073923;28;20436;-65
2023/02/13 02:13:20;;;;;;;24.33;14.87;;;7.30;99.90;;;;;;5059672;28;20462;-65
2023/02/13 02:15:48;;;;;;;21.90;14.67;;;7.30;99.90;;;;;;5078004;28;20487;-65
2023/02/13 02:18:19;;;;;;;22.87;16.00;;;7.20;99.90;;;;;;5077305;28;20523;-65
2023/02/13 02:21:08;;;;;;;22.20;13.53;;;7.20;99.90;;;;;;5079263;28;20443;-64
2023/02/13 02:23:49;;;;;;;24.70;15.80;;;7.20;99.90;;;;;;5075388;28;20934;-65
2023/02/13 02:26:33;;;;;;;26.20;16.17;;;7.10;99.90;;;;;;5076854;28;20447;-65
2023/02/13 02:29:32;;;;;;;23.87;14.67;;;7.10;99.90;;;;;;5057163;28;21013;-65
2023/02/13 02:32:01;;;;;;;23.47;15.00;;;7.10;99.90;;;;;;5079523;28;20416;-65
2023/02/13 02:34:47;;;;;;;23.53;16.03;;;7.10;99.90;;;;;;5076443;28;20443;-65
2023/02/13 02:37:34;;;;;;;20.57;14.50;;;7.00;99.90;;;;;;5075726;28;21115;-65
2023/02/13 02:40:13;;;;;;;22.43;15.57;;;7.00;99.90;;;;;;5075900;28;20432;-65
2023/02/13 02:43:03;;;;;;;29.90;16.80;;;6.90;99.90;;;;;;5076111;28;20793;-65
2023/02/13 02:45:57;;;;;;;22.40;14.57;;;6.90;99.90;;;;;;5072675;28;20427;-65
2023/02/13 02:51:40;;;;;;;22.37;15.27;;;6.90;99.90;;;;;;5076184;28;20517;-65
2023/02/13 02:57:26;;;;;;;24.77;16.77;;;6.80;99.90;;;;;;5077731;28;20431;-65
2023/02/13 03:14:18;;;;;;;23.50;16.03;;;6.80;99.90;;;;;;4977488;28;21018;-65
2023/02/13 03:22:56;;;;;;;24.93;16.20;;;6.70;99.90;;;;;;5069584;28;21146;-65
2023/02/13 03:25:34;;;;;;;23.77;15.60;;;6.70;99.90;;;;;;5074821;28;20420;-65
2023/02/13 03:31:22;;;;;;;21.73;14.90;;;6.60;99.90;;;;;;5070822;28;20965;-65
2023/02/13 03:34:12;;;;;;;20.37;14.20;;;6.60;99.90;;;;;;5074488;28;20816;-65
2023/02/13 03:39:47;;;;;;;21.77;14.20;;;6.60;99.90;;;;;;5071363;28;20795;-65
2023/02/13 03:42:42;;;;;;;29.50;16.60;;;6.60;99.90;;;;;;5076937;28;20456;-65
2023/02/13 03:48:08;;;;;;;26.43;14.70;;;6.50;99.90;;;;;;5074548;28;20578;-65
2023/02/13 03:50:39;;;;;;;21.90;15.57;;;6.50;99.90;;;;;;5073419;28;20440;-65
2023/02/13 03:53:15;;;;;;;23.60;15.53;;;6.50;99.90;;;;;;5077308;28;20815;-65
2023/02/13 04:01:31;;;;;;;22.20;16.43;;;6.40;99.90;;;;;;5077137;28;20427;-65
2023/02/13 04:04:14;;;;;;;25.10;15.80;;;6.40;99.90;;;;;;5077005;28;20526;-64
2023/02/13 04:06:48;;;;;;;22.53;16.00;;;6.40;99.90;;;;;;5073651;28;20629;-65
2023/02/13 04:09:15;;;;;;;25.07;15.10;;;6.40;99.90;;;;;;5058718;28;20853;-65
2023/02/13 04:12:05;;;;;;;24.27;16.27;;;6.40;99.90;;;;;;5073562;28;20847;-65
2023/02/13 04:14:47;;;;;;;24.77;16.00;;;6.30;99.90;;;;;;5069933;28;20525;-65
2023/02/13 04:17:22;;;;;;;24.23;16.13;;;6.30;99.90;;;;;;5075372;28;20463;-65
2023/02/13 04:19:48;;;;;;;23.43;15.20;;;6.30;99.90;;;;;;5073192;28;20832;-64
2023/02/13 04:22:13;;;;;;;24.07;17.33;;;6.20;99.90;;;;;;5068909;28;20491;-64
2023/02/13 04:24:39;;;;;;;21.53;15.03;;;6.20;99.90;;;;;;5072931;28;20687;-64
2023/02/13 04:27:04;;;;;;;22.67;15.30;;;6.30;99.90;;;;;;5070612;28;20199;-64
2023/02/13 04:29:30;;;;;;;23.50;16.47;;;6.20;99.90;;;;;;5072883;28;20190;-65
2023/02/13 04:31:55;;;;;;;23.93;15.50;;;6.20;99.90;;;;;;5074074;28;20243;-64
2023/02/13 04:34:21;;;;;;;20.70;14.60;;;6.20;99.90;;;;;;5073588;28;20625;-63
2023/02/13 04:36:47;;;;;;;22.00;15.00;;;6.20;99.90;;;;;;5074627;28;20964;-64
2023/02/13 04:39:12;;;;;;;25.00;15.13;;;6.20;99.90;;;;;;5072283;28;20801;-64
2023/02/13 04:41:38;;;;;;;21.90;15.30;;;6.20;99.90;;;;;;5073738;28;20297;-64
2023/02/13 04:44:03;;;;;;;22.83;15.30;;;6.20;99.90;;;;;;5074012;28;20183;-64
2023/02/13 04:46:29;;;;;;;25.80;15.30;;;6.20;99.90;;;;;;5069182;28;20248;-64
2023/02/13 04:48:55;;;;;;;20.73;14.73;;;6.10;99.90;;;;;;5072447;28;20280;-64
2023/02/13 04:51:20;;;;;;;23.90;14.77;;;6.10;99.90;;;;;;5070558;28;20838;-64
2023/02/13 04:53:46;;;;;;;23.43;16.50;;;6.10;99.90;;;;;;5072302;28;20190;-64
2023/02/13 04:56:12;;;;;;;24.40;15.80;;;6.10;99.90;;;;;;5069693;28;20695;-64
2023/02/13 04:58:37;;;;;;;22.70;14.80;;;6.10;99.90;;;;;;5074479;28;20517;-64
2023/02/13 05:01:11;;;;;;;21.23;15.57;;;6.10;99.90;;;;;;5070968;28;20427;-64
2023/02/13 05:03:37;;;;;;;22.27;14.00;;;6.00;99.90;;;;;;5067411;28;20194;-63
2023/02/13 05:06:02;;;;;;;19.97;13.93;;;6.00;99.90;;;;;;5050593;28;20763;-64
2023/02/13 05:08:28;;;;;;;21.50;15.00;;;6.00;99.90;;;;;;5071923;28;20182;-64
2023/02/13 05:10:53;;;;;;;22.20;15.13;;;6.00;99.90;;;;;;5071781;28;20201;-63
2023/02/13 05:13:20;;;;;;;22.33;15.90;;;5.90;99.90;;;;;;5068742;28;20190;-63
2023/02/13 05:15:47;;;;;;;20.80;14.50;;;5.90;99.90;;;;;;5075680;28;20221;-63
2023/02/13 05:18:14;;;;;;;21.77;15.73;;;5.90;99.90;;;;;;5072670;28;20481;-64
2023/02/13 05:20:40;;;;;;;22.50;15.00;;;5.90;99.90;;;;;;5057028;28;20431;-63
2023/02/13 05:23:22;;;;;;;20.57;14.37;;;5.90;99.90;;;;;;5075556;28;20416;-64
2023/02/13 05:25:48;;;;;;;22.23;16.20;;;5.90;99.90;;;;;;5072974;28;20277;-64
2023/02/13 05:30:58;;;;;;;21.60;15.10;;;5.90;99.90;;;;;;5082623;28;20444;-63
2023/02/13 05:33:23;;;;;;;24.20;15.20;;;5.90;99.90;;;;;;5081703;28;20428;-63
2023/02/13 05:35:49;;;;;;;23.43;15.27;;;5.90;99.90;;;;;;5079347;28;20239;-63
2023/02/13 05:38:15;;;;;;;22.87;14.77;;;5.80;99.90;;;;;;5076202;28;20667;-64
2023/02/13 05:40:40;;;;;;;21.97;15.03;;;5.90;99.90;;;;;;5077638;28;21878;-64
2023/02/13 05:43:06;;;;;;;22.17;15.47;;;5.90;99.90;;;;;;5077370;28;20193;-63
2023/02/13 05:45:31;;;;;;;20.30;14.37;;;5.80;99.90;;;;;;5061859;28;20182;-63
2023/02/13 05:47:57;;;;;;;22.07;15.23;;;5.80;99.90;;;;;;5058546;28;20278;-63
2023/02/13 05:50:22;;;;;;;23.00;15.17;;;5.80;99.90;;;;;;5077827;28;20186;-63
2023/02/13 05:52:48;;;;;;;21.77;13.87;;;5.80;99.90;;;;;;5078745;28;20210;-63
2023/02/13 05:55:14;;;;;;;19.80;14.13;;;5.80;99.90;;;;;;5074953;28;20909;-64
2023/02/13 05:57:39;;;;;;;23.00;14.83;;;5.70;99.90;;;;;;5060009;28;20246;-64
2023/02/13 06:00:06;;;;;;;20.27;14.00;;;5.70;99.90;;;;;;5077340;28;20741;-64
2023/02/13 06:02:31;;;;;;;21.30;14.50;;;5.70;99.90;;;;;;5073794;28;20175;-63
2023/02/13 06:04:57;;;;;;;20.70;14.20;;;5.70;99.90;;;;;;5077737;28;20454;-64
2023/02/13 06:07:22;;;;;;;20.37;14.60;;;5.70;99.90;;;;;;5073855;28;20202;-64
2023/02/13 06:09:48;;;;;;;22.93;14.50;;;5.70;99.90;;;;;;5073282;28;20660;-64
2023/02/13 06:12:14;;;;;;;18.90;13.30;;;5.70;99.90;;;;;;5076636;28;20246;-64
2023/02/13 06:14:39;;;;;;;22.60;14.97;;;5.60;99.90;;;;;;5076102;28;20183;-64
2023/02/13 06:17:05;;;;;;;19.47;14.33;;;5.70;99.90;;;;;;5076586;28;20203;-64
2023/02/13 06:19:30;;;;;;;22.70;14.63;;;5.60;99.90;;;;;;5060393;28;20187;-64
2023/02/13 06:21:56;;;;;;;21.50;13.57;;;5.60;99.90;;;;;;5073660;28;20182;-64
2023/02/13 06:24:21;;;;;;;22.37;13.93;;;5.60;99.90;;;;;;5076798;28;20237;-64
2023/02/13 06:26:47;;;;;;;20.60;14.37;;;5.60;99.90;;;;;;5078269;28;20319;-63
2023/02/13 06:29:12;;;;;;;21.27;15.37;;;5.60;99.90;;;;;;5078160;28;20575;-64
2023/02/13 06:31:38;;;;;;;21.03;14.10;;;5.60;99.90;;;;;;5059445;28;20214;-64
2023/02/13 06:34:03;;;;;;;22.83;14.17;;;5.60;99.90;;;;;;5053427;28;20179;-64
2023/02/13 06:36:29;;;;;;;20.17;14.23;;;5.50;99.90;;;;;;5077913;28;20597;-64
2023/02/13 06:38:55;;;;;;;20.73;15.47;;;5.50;99.90;;;;;;5070078;28;20283;-64
2023/02/13 06:41:21;;;;;;;20.73;14.43;;;5.50;99.90;;;;;;5060784;28;20918;-63
2023/02/13 06:43:46;;;;;;;22.50;15.60;;;5.50;99.90;;;;;;5070697;28;20209;-64
2023/02/13 06:46:12;;;;;;;21.67;15.17;;;5.50;99.90;;;;;;5070757;28;20214;-63
2023/02/13 06:48:37;;;;;;;23.47;14.30;;;5.50;99.90;;;;;;5074805;28;20277;-64
2023/02/13 06:51:03;;;;;;;22.13;15.63;;;5.50;99.90;;;;;;5078321;28;20213;-64
2023/02/13 06:53:29;;;;;;;21.40;14.70;;;5.50;99.90;;;;;;5070633;28;20175;-64
2023/02/13 06:55:55;;;;;;;23.53;15.80;;;5.50;99.90;;;;;;5074398;28;20283;-64
2023/02/13 06:58:23;;;;;;;23.00;13.90;;;5.50;99.90;;;;;;5073359;28;20732;-64
2023/02/13 07:00:49;;;;;;;18.87;13.90;;;5.50;99.90;;;;;;5078437;28;20429;-64
2023/02/13 07:03:15;;;;;;;18.40;14.63;;;5.50;99.90;;;;;;5074375;28;21092;-65
2023/02/13 07:05:42;;;;;;;20.50;14.37;;;5.50;99.90;;;;;;5071660;28;20470;-64
2023/02/13 07:08:10;;;;;;;22.03;15.10;;;5.50;99.90;;;;;;5067135;28;20655;-65
2023/02/13 07:10:37;;;;;;;18.53;13.83;;;5.50;99.90;;;;;;5073691;28;20530;-65
2023/02/13 07:13:04;;;;;;;19.40;14.27;;;5.50;99.90;;;;;;5072766;28;20539;-65
2023/02/13 07:15:30;;;;;;;22.13;14.90;;;5.50;99.90;;;;;;5075399;28;20487;-64
2023/02/13 07:17:57;;;;;;;20.50;14.00;;;5.50;99.90;;;;;;5074294;28;20986;-64
2023/02/13 07:20:24;;;;;;;22.03;15.50;;;5.50;99.90;;;;;;5052452;28;20438;-65
2023/02/13 07:22:50;;;;;;;22.17;14.77;;;5.50;99.90;;;;;;5072510;28;20448;-65
2023/02/13 07:25:16;;;;;;;24.07;15.60;;;5.60;99.90;;;;;;5076080;28;20459;-65
2023/02/13 07:27:42;;;;;;;21.90;14.93;;;5.50;99.90;;;;;;5077839;28;20444;-65
2023/02/13 07:30:08;;;;;;;23.97;15.73;;;5.50;99.90;;;;;;5075615;28;20811;-65
2023/02/13 07:32:33;;;;;;;25.73;15.73;;;5.50;99.90;;;;;;5074452;28;20195;-64
2023/02/13 07:34:59;;;;;;;30.63;17.70;;;5.50;99.90;;;;;;5077787;28;20467;-65
2023/02/13 07:37:27;;;;;;;22.80;16.00;;;5.50;99.90;;;;;;5077348;28;20202;-65
2023/02/13 07:39:52;;;;;;;22.00;14.97;;;5.50;99.90;;;;;;5059499;28;20694;-64
2023/02/13 07:42:18;;;;;;;23.40;15.43;;;5.50;99.90;;;;;;5073451;28;21152;-65
2023/02/13 07:44:43;;;;;;;28.53;16.20;;;5.60;99.90;;;;;;5057962;28;20189;-64
2023/02/13 07:47:09;;;;;;;24.57;15.07;;;5.60;99.90;;;;;;5076577;28;20268;-64
2023/02/13 07:49:35;;;;;;;28.03;14.80;;;5.60;99.90;;;;;;5053469;28;20240;-64
2023/02/13 07:52:01;;;;;;;19.77;13.70;;;5.60;99.90;;;;;;5072060;28;20241;-64
2023/02/13 07:54:27;;;;;;;27.17;16.60;;;5.70;99.90;;;;;;5072466;28;20956;-64
2023/02/13 07:56:52;;;;;;;27.30;16.27;;;5.80;99.90;;;;;;5073286;28;20480;-64
2023/02/13 07:59:18;;;;;;;20.57;14.53;;;5.80;99.90;;;;;;5070782;28;20176;-64
2023/02/13 08:01:44;;;;;;;20.93;15.57;;;5.90;99.90;;;;;;5073660;28;20186;-64
2023/02/13 08:04:09;;;;;;;22.73;16.10;;;6.00;99.90;;;;;;5071647;28;20281;-64
2023/02/13 08:06:37;;;;;;;24.37;16.30;;;6.00;99.90;;;;;;5074342;28;20728;-64
2023/02/13 08:11:52;;;;;;;25.57;16.10;;;6.10;99.90;;;;;;5070458;28;20478;-66
2023/02/13 08:14:22;;;;;;;21.73;15.63;;;6.10;99.90;;;;;;5075902;28;20428;-65
2023/02/13 08:16:48;;;;;;;22.30;15.70;;;6.10;99.90;;;;;;5076120;28;20529;-66
2023/02/13 08:19:14;;;;;;;24.87;15.87;;;6.20;99.90;;;;;;5075279;28;20432;-65
2023/02/13 08:21:39;;;;;;;22.47;15.07;;;6.20;99.90;;;;;;5067997;28;20942;-65
2023/02/13 08:24:06;;;;;;;19.70;14.43;;;6.20;99.90;;;;;;5053469;28;20183;-64
2023/02/13 08:26:32;;;;;;;25.37;16.03;;;6.30;99.90;;;;;;5064568;28;20218;-65
2023/02/13 08:28:59;;;;;;;23.30;15.70;;;6.30;99.90;;;;;;5075658;28;20433;-65
2023/02/13 08:31:24;;;;;;;24.77;15.60;;;6.40;99.90;;;;;;5074795;28;20492;-65
2023/02/13 08:33:50;;;;;;;22.73;15.13;;;6.40;99.90;;;;;;5076075;28;20568;-66
2023/02/13 08:36:17;;;;;;;23.33;15.53;;;6.50;99.90;;;;;;5076145;28;20206;-65
2023/02/13 08:38:43;;;;;;;23.73;16.53;;;6.50;99.90;;;;;;5070179;28;20194;-65
2023/02/13 08:41:09;;;;;;;23.13;16.00;;;6.60;99.90;;;;;;5073088;28;20447;-66
2023/02/13 08:43:34;;;;;;;20.30;14.83;;;6.60;99.90;;;;;;5065898;28;20199;-66
2023/02/13 08:46:00;;;;;;;23.70;16.80;;;6.60;99.90;;;;;;5072845;28;20518;-65
2023/02/13 08:48:27;;;;;;;21.43;14.00;;;6.60;99.90;;;;;;5076784;28;20195;-66
2023/02/13 08:50:52;;;;;;;31.13;18.03;;;6.60;99.90;;;;;;5069616;28;20270;-65
2023/02/13 08:53:18;;;;;;;21.30;16.13;;;6.60;99.90;;;;;;5076821;28;20515;-66
2023/02/13 08:55:51;;;;;;;24.10;15.83;;;6.60;99.90;;;;;;5076025;28;20198;-65
2023/02/13 08:58:17;;;;;;;25.13;16.27;;;6.60;99.90;;;;;;5075002;28;20550;-65
2023/02/13 09:00:43;;;;;;;23.20;15.90;;;6.60;99.90;;;;;;5055970;28;20437;-65
2023/02/13 09:03:08;;;;;;;20.83;15.73;;;6.60;99.90;;;;;;5077950;28;20186;-65
2023/02/13 09:05:35;;;;;;;24.27;14.97;;;6.50;99.90;;;;;;5056266;28;20201;-67
2023/02/13 09:08:03;;;;;;;20.83;14.60;;;6.30;99.90;;;;;;5071840;28;20232;-65
2023/02/13 09:10:31;;;;;;;16.50;12.03;;;6.30;99.90;;;;;;5075067;28;20520;-65
2023/02/13 09:13:02;;;;;;;18.40;13.83;;;6.10;99.90;;;;;;5069177;28;20523;-66
2023/02/13 09:15:28;;;;;;;21.80;14.93;;;6.10;99.90;;;;;;5062655;28;20460;-65
2023/02/13 09:17:53;;;;;;;18.40;12.77;;;6.10;99.90;;;;;;5070941;28;20550;-65
2023/02/13 09:20:19;;;;;;;21.93;14.47;;;5.90;99.90;;;;;;5055107;28;20190;-66
2023/02/13 09:22:44;;;;;;;21.60;15.10;;;6.00;99.90;;;;;;5073594;28;20257;-66
2023/02/13 09:25:10;;;;;;;19.80;13.23;;;6.00;99.90;;;;;;5073842;28;20215;-65
2023/02/13 09:27:37;;;;;;;21.43;14.10;;;6.00;99.90;;;;;;5070398;28;20448;-66
2023/02/13 09:30:07;;;;;;;21.53;14.20;;;6.00;99.90;;;;;;5069395;28;20711;-66
2023/02/13 09:32:33;;;;;;;20.53;13.83;;;5.80;99.90;;;;;;5074758;28;20461;-66
2023/02/13 09:34:59;;;;;;;20.20;14.80;;;5.60;99.90;;;;;;5070408;28;20491;-66
2023/02/13 09:37:25;;;;;;;24.43;15.30;;;5.80;99.90;;;;;;5073225;28;20455;-67
2023/02/13 09:39:52;;;;;;;25.03;16.80;;;5.80;99.90;;;;;;5069604;28;20179;-66
2023/02/13 09:42:25;;;;;;;22.63;15.93;;;5.70;99.90;;;;;;5076821;28;20427;-65
2023/02/13 09:44:54;;;;;;;21.67;14.73;;;5.70;99.90;;;;;;5072941;28;20463;-66
2023/02/13 09:47:33;;;;;;;24.50;15.50;;;5.80;99.90;;;;;;5072795;28;20461;-65
2023/02/13 09:50:01;;;;;;;26.63;17.20;;;5.80;99.90;;;;;;5070986;28;20437;-67
2023/02/13 09:52:34;;;;;;;24.60;16.00;;;5.80;99.90;;;;;;5072941;28;20527;-66
2023/02/13 09:55:01;;;;;;;23.53;16.70;;;5.80;99.90;;;;;;5071658;28;20462;-65
2023/02/13 09:57:38;;;;;;;24.73;16.23;;;5.90;99.90;;;;;;5075590;28;21202;-66
2023/02/13 10:00:30;;;;;;;23.90;17.43;;;5.90;99.90;;;;;;5074829;28;20822;-66
2023/02/13 10:03:00;;;;;;;28.00;17.53;;;5.70;99.90;;;;;;5074080;28;20457;-66
2023/02/13 10:06:00;;;;;;;25.57;16.90;;;5.90;99.90;;;;;;5053480;28;20586;-66
2023/02/13 10:08:53;;;;;;;24.77;16.83;;;5.90;99.90;;;;;;5071596;28;20455;-65
2023/02/13 10:11:49;;;;;;;34.07;19.13;;;5.80;99.90;;;;;;5074124;28;20440;-66
2023/02/13 10:14:20;;;;;;;29.17;18.47;;;5.90;99.90;;;;;;5075491;28;20445;-66
2023/02/13 10:17:00;;;;;;;27.57;19.10;;;5.80;99.90;;;;;;5078722;28;20462;-67
2023/02/13 10:19:53;;;;;;;28.53;19.07;;;5.90;99.90;;;;;;5072663;28;20645;-67
2023/02/13 10:22:30;;;;;;;28.73;18.63;;;5.70;99.90;;;;;;5073747;28;20470;-67
2023/02/13 10:25:20;;;;;;;35.73;20.50;;;5.70;99.90;;;;;;5075290;28;20436;-67
2023/02/13 10:27:51;;;;;;;31.00;19.80;;;5.80;99.90;;;;;;5076492;28;20501;-66
2023/02/13 10:30:42;;;;;;;33.30;19.70;;;6.00;99.90;;;;;;5072296;28;20516;-67
2023/02/13 10:33:24;;;;;;;27.87;17.20;;;6.20;99.90;;;;;;5070163;28;20428;-67
2023/02/13 10:36:06;;;;;;;28.20;17.40;;;6.00;99.90;;;;;;5075331;28;20848;-66
2023/02/13 10:38:34;;;;;;;28.87;18.37;;;6.10;99.90;;;;;;5072897;28;20496;-66
2023/02/13 10:41:39;;;;;;;27.83;19.60;;;6.10;99.90;;;;;;5077744;28;20441;-65
2023/02/13 10:44:11;;;;;;;27.00;18.80;;;6.30;99.90;;;;;;5074546;28;20436;-65
2023/02/13 10:46:47;;;;;;;31.87;19.53;;;6.60;99.90;;;;;;5072627;28;20491;-66
2023/02/13 10:49:42;;;;;;;30.87;19.90;;;6.70;99.90;;;;;;5074030;28;20460;-66
2023/02/13 10:52:23;;;;;;;25.80;18.10;;;6.70;99.90;;;;;;5060693;28;20441;-68
2023/02/13 10:55:08;;;;;;;28.50;18.43;;;6.80;99.90;;;;;;5073357;28;20480;-69
2023/02/13 10:58:02;;;;;;;26.00;16.63;;;7.00;99.90;;;;;;5061401;28;20820;-68
2023/02/13 11:00:56;;;;;;;27.30;18.30;;;7.00;99.90;;;;;;5079635;28;20470;-66
2023/02/13 11:03:27;;;;;;;27.43;18.87;;;7.00;99.90;;;;;;5076121;28;20491;-66
2023/02/13 11:05:54;;;;;;;25.23;17.70;;;6.80;99.90;;;;;;5073510;28;20997;-67
2023/02/13 11:08:22;;;;;;;32.60;20.33;;;6.90;99.90;;;;;;5056081;28;20432;-66
2023/02/13 11:10:48;;;;;;;23.87;17.10;;;7.00;99.90;;;;;;5075421;28;20974;-67
2023/02/13 11:13:19;;;;;;;27.60;19.10;;;7.20;99.90;;;;;;5075116;28;20920;-67
2023/02/13 11:16:02;;;;;;;26.83;19.00;;;7.20;99.90;;;;;;5077498;28;20456;-67
2023/02/13 11:18:32;;;;;;;25.93;18.83;;;7.40;99.90;;;;;;5074913;28;20433;-67
2023/02/13 11:21:29;;;;;;;27.70;18.80;;;7.40;99.90;;;;;;5073610;28;20525;-67
2023/02/13 11:23:56;;;;;;;27.50;17.60;;;7.60;99.90;;;;;;5068098;28;20449;-68
2023/02/13 11:26:31;;;;;;;27.73;17.93;;;7.70;99.90;;;;;;5076765;28;20494;-68
2023/02/13 11:29:00;;;;;;;29.13;17.63;;;7.70;99.90;;;;;;5067525;28;20440;-68
2023/02/13 11:31:31;;;;;;;26.30;17.20;;;7.70;99.90;;;;;;5076832;28;20417;-68
2023/02/13 11:33:59;;;;;;;25.90;17.77;;;7.70;99.90;;;;;;5073385;28;20447;-68
2023/02/13 11:36:31;;;;;;;27.43;18.50;;;7.80;99.90;;;;;;5077198;28;20460;-68
2023/02/13 11:39:05;;;;;;;28.47;18.87;;;7.90;99.90;;;;;;5072840;28;20880;-68
2023/02/13 11:41:38;;;;;;;24.30;17.53;;;7.90;99.90;;;;;;5077549;28;20670;-67
2023/02/13 11:44:04;;;;;;;26.30;18.43;;;7.90;99.90;;;;;;5075383;28;20934;-67
2023/02/13 11:46:46;;;;;;;24.97;17.53;;;8.10;99.90;;;;;;5072463;28;20460;-65
2023/02/13 11:49:20;;;;;;;27.03;18.40;;;8.20;99.90;;;;;;5072802;28;20289;-66
2023/02/13 11:51:48;;;;;;;24.30;18.00;;;8.40;99.90;;;;;;5075472;28;20467;-66
2023/02/13 11:54:33;;;;;;;24.57;17.50;;;8.50;99.90;;;;;;5074460;28;20436;-66
2023/02/13 11:57:14;;;;;;;27.33;20.93;;;8.50;99.90;;;;;;5075322;28;22005;-66
2023/02/13 11:59:42;;;;;;;25.30;17.83;;;8.70;99.90;;;;;;5074171;28;20440;-66
2023/02/13 12:02:21;;;;;;;28.90;17.50;;;8.80;99.90;;;;;;5072046;28;20422;-66
2023/02/13 12:04:52;;;;;;;20.73;16.03;;;9.00;99.90;;;;;;5073704;28;21035;-67
2023/02/13 12:07:29;;;;;;;22.47;16.83;;;9.20;99.90;;;;;;5076650;28;20566;-67
2023/02/13 12:10:02;;;;;;;24.77;18.40;;;9.30;99.90;;;;;;5073013;28;20442;-66
2023/02/13 12:12:34;;;;;;;27.20;17.33;;;9.40;99.90;;;;;;5078136;28;20937;-67
2023/02/13 12:15:13;;;;;;;21.63;15.13;;;10.10;99.90;;;;;;5074721;28;21166;-67
2023/02/13 12:17:43;;;;;;;24.67;17.00;;;11.10;99.90;;;;;;5076005;28;20559;-67
2023/02/13 12:20:14;;;;;;;22.80;17.30;;;12.00;99.90;;;;;;5072352;28;20420;-68
2023/02/13 12:23:11;;;;;;;23.07;17.40;;;12.60;99.90;;;;;;5067979;28;20457;-67
2023/02/13 12:26:01;;;;;;;22.57;17.40;;;13.20;99.90;;;;;;5074697;28;20891;-67
2023/02/13 12:28:55;;;;;;;24.33;16.90;;;13.30;99.90;;;;;;5073070;28;20468;-67
2023/02/13 12:31:44;;;;;;;20.80;16.73;;;13.70;99.90;;;;;;5066801;28;20453;-66
2023/02/13 12:34:40;;;;;;;21.43;17.10;;;14.00;99.90;;;;;;5070057;28;21341;-67
2023/02/13 12:37:18;;;;;;;22.27;18.23;;;14.20;99.90;;;;;;5067365;28;20476;-66
2023/02/13 12:40:14;;;;;;;28.77;17.07;;;14.00;99.90;;;;;;5070261;28;20480;-64
2023/02/13 12:42:48;;;;;;;27.93;15.70;;;14.20;99.90;;;;;;5070629;28;20487;-64
2023/02/13 12:45:52;;;;;;;17.07;14.37;;;14.20;99.90;;;;;;5071493;28;20430;-67
2023/02/13 12:48:54;;;;;;;20.87;16.07;;;14.30;99.90;;;;;;5056505;28;20444;-67
2023/02/13 12:51:39;;;;;;;19.53;15.53;;;14.50;99.90;;;;;;5076913;28;20432;-67
2023/02/13 12:54:26;;;;;;;17.13;14.17;;;14.40;99.90;;;;;;5074014;28;20443;-67
2023/02/13 12:57:09;;;;;;;16.07;13.87;;;14.60;99.90;;;;;;5070646;28;20460;-67
2023/02/13 13:00:00;;;;;;;16.40;13.40;;;14.80;99.90;;;;;;5073217;28;20429;-67
2023/02/13 13:02:50;;;;;;;18.67;15.00;;;14.90;99.90;;;;;;5071907;28;20416;-67
2023/02/13 13:06:00;;;;;;;19.77;15.30;;;15.10;99.90;;;;;;5075267;28;20440;-67
2023/02/13 13:08:56;;;;;;;19.53;15.43;;;14.80;99.90;;;;;;5013358;28;20525;-67
2023/02/13 13:11:43;;;;;;;18.70;14.43;;;14.80;99.90;;;;;;5069846;28;20425;-64
2023/02/13 13:14:43;;;;;;;18.80;15.90;;;14.90;99.90;;;;;;5074858;28;20404;-67
2023/02/13 13:17:22;;;;;;;18.77;15.13;;;15.00;99.90;;;;;;5073412;28;20551;-67
2023/02/13 13:20:38;;;;;;;20.83;15.40;;;14.90;99.90;;;;;;5072107;28;20441;-67
2023/02/13 13:23:37;;;;;;;18.57;13.97;;;15.00;99.90;;;;;;5071291;28;20483;-66
2023/02/13 13:26:35;;;;;;;21.33;15.83;;;15.10;99.90;;;;;;5056372;28;20460;-67
2023/02/13 13:29:29;;;;;;;19.00;15.83;;;14.60;99.90;;;;;;5072956;28;20445;-67
2023/02/13 13:31:59;;;;;;;23.80;16.30;;;14.80;99.90;;;;;;5067493;28;20436;-66
2023/02/13 13:34:26;;;;;;;21.07;15.20;;;14.60;99.90;;;;;;5074141;28;20433;-67
2023/02/13 13:37:31;;;;;;;21.03;17.30;;;14.60;99.90;;;;;;5072586;28;20480;-67
2023/02/13 13:39:59;;;;;;;19.00;16.47;;;14.70;99.90;;;;;;5049102;28;20783;-67
2023/02/13 13:42:50;;;;;;;23.57;15.60;;;14.70;99.90;;;;;;5074729;28;20428;-67
2023/02/13 13:45:35;;;;;;;18.60;15.60;;;14.90;99.90;;;;;;5073063;28;20444;-67
2023/02/13 13:48:36;;;;;;;21.00;15.40;;;14.90;99.90;;;;;;5069623;28;20445;-67